Oxford, KS

4:24 PM CDT on October 25, 2014 (GMT -0500)
Randy's Backyard | Change Station
CLOSE
Current Station
Personal Weather Station
Location: Winfield, KS
Elevation: 1138 ft
Nearby Weather Stations

Elev 1138 ft 37.24 °N, 97.00 °W | Updated 1 second ago

Clear
Clear
92.7 °F
Feels Like 94 °F
N
0.0
Wind Variable Wind from West
Gusts 0.0 mph

Today
High -- | Low -- °F
--% Chance of Precip.
Yesterday
High -- | Low -- °F
Precip. -- in
7:46 AM 6:38 PM
Waxing Crescent, 4% visible
Pressure 29.99 in
Visibility 10.0 miles
Clouds Clear
Heat Index 94 °F
Dew Point 63 °F
Humidity 37%
Rainfall 0.00 in
Snow Depth Not available.
UV 3 out of 12
Pollen 3.30 out of 12
Air Quality Not available.
Flu Activity No Activity
METAR KWLD 252054Z AUTO 17011KT 10SM CLR 31/16 A3002 RMK AO2 SLP154 T03060156 56016

More Conditions Fewer Conditions

Pressure 29.99 in
Visibility 10.0 miles
Clouds Clear
Heat Index 94 °F
Dew Point 63 °F
Humidity 37%
Rainfall 0.00 in
Snow Depth Not available.
UV 3 out of 12
Pollen 3.30 out of 12
Air Quality Not available.
Flu Activity No Activity
METAR KWLD 252054Z AUTO 17011KT 10SM CLR 31/16 A3002 RMK AO2 SLP154 T03060156 56016

More Conditions Fewer Conditions

10-Day Weather Forecast

Almanac

Astronomy

Oct. 25, 2014 Rise Set
Actual Time 7:46 AM CDT 6:38 PM CDT
Civil Twilight 7:19 AM CDT 7:05 PM CDT
Nautical Twilight 6:49 AM CDT 7:35 PM CDT
Astronomical Twilight 6:18 AM CDT 8:06 PM CDT
Moon 9:24 AM CDT 8:04 PM CDT
Length of Visible Light 11h 45m
Length of Day
10h 52m
Tomorrow will be 2m 12s shorter.
Waxing Crescent, 4% of the Moon is Illuminated
Today
Waxing Crescent
Oct 30
First Quarter
Nov 6
Full
Nov 14
Last Quarter
Nov 22
New

Today's Extremes

State Highs State Lows

Community

WunderPhotos

Upload Photos

1,765,001 photos uploaded!

Nearby

Snow Depth

Station Depth Elevation
No new snow has been reported.

Earthquake Activity

City Distance Mag. Time & Date
Mooreland, Oklahoma 113 miles 2.9 3:21 PM CDT
2014-10-25
Jones, Oklahoma 117 miles 3.0 12:10 PM CDT
2014-10-25
Langston, Oklahoma 97 miles 3.0 7:36 AM CDT
2014-10-25
Pawnee, Oklahoma 63 miles 2.6 7:24 PM CDT
2014-10-24
Minimum magnitude displayed is 2.5.

Coastal Water Temperatures

Place Temperature
No Stations Reporting

Nearby Weather Stations